Hauptseite
METAR-TAF:

METAR-TAF

Flughäfen :

Flughafen Trapani

Trapani, Italien

Breite: 37-55N, Länge: 012-30E, Höhe: 7 m

Beobachtung

Neuester Wetterbericht von vor 44 Minuten, um 14:55 UTC
Wind 7 kt aus Südwest
Temperatur 17°C
Luftfeuchtigkeit 72%
Luftdruck 1016 hPa
Sichtweite 10 km oder mehr
Leicht bewölkt in der Höhe von 1500 ft

METAR: LICT 251455Z 23007KT 9999 FEW015 17/12 Q1016 RMK FEW VIS MIN 9999 WIND THR13 20006KT BLU

Zeit: 16:39 (15:39 UTC)

Prognose

Neuester Wetterbericht von vor 1 Stunde und 39 Minuten, um 14:00 UTC
Gültige Prognose vom 25 um 15 UTC bis 25 um 24 UTC
Wind 12 kt aus West/Südwest
Sichtweite 10 km oder mehr
Leicht bewölkt in der Höhe von 1800 ft
Übergehend zu
vom 25 um 17 UTC bis 25 um 18 UTC
Wind 10 kt aus Süd

TAF: LICT 251400Z 2515/2524 24012KT 9999 FEW018 BECMG 2517/2518 18010KT

Wetterbeobachtungen und Prognosen von mehr als 4000 Flughäfen (METAR und TAF Bericht).

Die verfügbaren Stationen werden durch gelbe und rote Markierungen auf der Karte dargestellt.

Führen Sie die Maus auf sie, um den Namen der Station zu sehen.

Darauf klicken, um die Beobachtung von Wetterbeobachtungen und Prognosen zu sehen.

Um die Karte zu ändern : klicken Sie auf den grünen Tasten mit einem schwarzen Kreuz Zum Vergrößern, auf den grünen Button mit einem Gedankenstrich zu verkleinern, oder auf die grünen Pfeile für benachbarte Karten.


METAR-TAF: